Time;durP1;ratioP1;P1;durP2;ratioP2;P2;SDS_P1;SDS_P2;PMS_P1;PMS_P2;Temp;Humidity;BMP_temperature;BMP_pressure;BME280_temperature;BME280_humidity;BME280_pressure;Samples;Min_cycle;Max_cycle;Signal;HPM_P1;HPM_P2
2023/12/26 00:01:57;;;;;;;1.88;1.50;;;;;;;-148.88;100.00;-17125.47;5034788;28;20045;-86
2023/12/26 00:04:23;;;;;;;1.17;0.90;;;;;;;-148.88;100.00;-17125.47;5052850;28;20036;-86
2023/12/26 00:06:49;;;;;;;1.27;0.90;;;;;;;-148.88;100.00;-17125.47;5034968;28;20025;-86
2023/12/26 00:09:15;;;;;;;1.60;1.38;;;;;;;-148.88;100.00;-17125.47;5037673;28;20387;-87
2023/12/26 00:11:45;;;;;;;1.80;1.60;;;;;;;-148.88;100.00;-17125.47;5052355;28;20048;-87
2023/12/26 00:14:12;;;;;;;1.65;1.52;;;;;;;-148.88;100.00;-17125.47;5034365;28;20029;-86
2023/12/26 00:16:39;;;;;;;1.55;1.30;;;;;;;-148.88;100.00;-17125.47;5066906;22;20044;-91
2023/12/26 00:19:05;;;;;;;1.50;1.20;;;;;;;-148.88;100.00;-17125.47;5075977;28;20059;-92
2023/12/26 00:21:30;;;;;;;1.60;1.30;;;;;;;-148.88;100.00;-17125.47;5057637;28;20475;-91
2023/12/26 00:23:56;;;;;;;1.60;1.20;;;;;;;-148.88;100.00;-17125.47;5056811;28;20016;-91
2023/12/26 00:26:21;;;;;;;2.38;1.27;;;;;;;-148.88;100.00;-17125.47;5074612;28;20024;-91
2023/12/26 00:28:46;;;;;;;1.50;1.23;;;;;;;-148.88;100.00;-17125.47;5056439;28;20078;-91
2023/12/26 00:31:12;;;;;;;1.58;0.93;;;;;;;-148.88;100.00;-17125.47;5073343;28;20097;-91
2023/12/26 00:33:37;;;;;;;1.80;1.35;;;;;;;-148.88;100.00;-17125.47;5074178;28;20024;-91
2023/12/26 00:36:03;;;;;;;1.60;1.33;;;;;;;-148.88;100.00;-17125.47;5058911;28;20012;-91
2023/12/26 00:38:29;;;;;;;1.73;1.60;;;;;;;-148.88;100.00;-17125.47;5059774;28;20511;-89
2023/12/26 00:40:54;;;;;;;1.67;1.50;;;;;;;-148.88;100.00;-17125.47;5078717;28;20043;-92
2023/12/26 00:43:20;;;;;;;2.08;1.63;;;;;;;-148.88;100.00;-17125.47;5078938;28;20402;-90
2023/12/26 00:45:45;;;;;;;2.05;1.83;;;;;;;-148.88;100.00;-17125.47;5077397;28;20016;-91
2023/12/26 00:48:11;;;;;;;1.75;1.65;;;;;;;-148.88;100.00;-17125.47;5059116;28;20028;-90
2023/12/26 00:50:41;;;;;;;2.40;1.90;;;;;;;-148.88;100.00;-17125.47;5059535;28;20031;-91
2023/12/26 00:53:12;;;;;;;1.77;1.55;;;;;;;-148.88;100.00;-17125.47;5077428;28;20112;-90
2023/12/26 00:55:38;;;;;;;2.83;1.58;;;;;;;-148.88;100.00;-17125.47;5076407;28;20074;-90
2023/12/26 00:58:03;;;;;;;1.80;1.50;;;;;;;-148.88;100.00;-17125.47;5076375;28;20403;-91
2023/12/26 01:00:29;;;;;;;1.52;1.40;;;;;;;-148.88;100.00;-17125.47;5077185;28;20028;-91
2023/12/26 01:02:54;;;;;;;1.75;1.52;;;;;;;-148.88;100.00;-17125.47;5058083;28;20119;-90
2023/12/26 01:05:20;;;;;;;1.75;1.42;;;;;;;-148.88;100.00;-17125.47;5058327;28;20099;-89
2023/12/26 01:07:45;;;;;;;1.85;1.55;;;;;;;-148.88;100.00;-17125.47;5075821;28;20467;-90
2023/12/26 01:10:11;;;;;;;1.80;1.40;;;;;;;-148.88;100.00;-17125.47;5075588;28;20044;-90
2023/12/26 01:12:36;;;;;;;3.63;1.20;;;;;;;-148.88;100.00;-17125.47;5075629;28;20088;-89
2023/12/26 01:15:02;;;;;;;2.08;1.42;;;;;;;-148.88;100.00;-17125.47;5076232;28;20021;-90
2023/12/26 01:17:27;;;;;;;1.92;1.33;;;;;;;-148.88;100.00;-17125.47;5059091;28;20075;-91
2023/12/26 01:19:53;;;;;;;1.50;1.30;;;;;;;-148.88;100.00;-17125.47;5076149;28;20025;-91
2023/12/26 01:22:18;;;;;;;1.90;1.67;;;;;;;-148.88;100.00;-17125.47;5058172;28;20021;-92
2023/12/26 01:24:44;;;;;;;2.20;1.63;;;;;;;-148.88;100.00;-17125.47;5075927;28;20031;-90
2023/12/26 01:27:09;;;;;;;2.50;1.70;;;;;;;-148.88;100.00;-17125.47;5076179;28;20025;-91
2023/12/26 01:29:35;;;;;;;2.75;1.80;;;;;;;-148.88;100.00;-17125.47;5075224;28;20475;-91
2023/12/26 01:32:01;;;;;;;1.70;1.52;;;;;;;-148.88;100.00;-17125.47;5076213;28;20040;-91
2023/12/26 01:34:26;;;;;;;1.65;1.40;;;;;;;-148.88;100.00;-17125.47;5075510;28;20023;-90
2023/12/26 01:36:52;;;;;;;2.03;1.67;;;;;;;-148.88;100.00;-17125.47;5076074;28;20035;-91
2023/12/26 01:39:17;;;;;;;1.77;1.40;;;;;;;-148.88;100.00;-17125.47;5058758;28;20027;-90
2023/12/26 01:41:42;;;;;;;1.77;1.48;;;;;;;-148.88;100.00;-17125.47;5076078;28;20398;-91
2023/12/26 01:44:08;;;;;;;2.58;1.98;;;;;;;-148.88;100.00;-17125.47;5075593;28;20025;-90
2023/12/26 01:46:34;;;;;;;2.58;1.38;;;;;;;-148.88;100.00;-17125.47;5074137;28;20021;-90
2023/12/26 01:49:00;;;;;;;1.80;1.60;;;;;;;-148.88;100.00;-17125.47;5057053;28;20098;-91
2023/12/26 01:51:28;;;;;;;1.65;1.52;;;;;;;-148.88;100.00;-17125.47;5057814;28;20021;-89
2023/12/26 01:53:56;;;;;;;2.35;1.58;;;;;;;-148.88;100.00;-17125.47;5076862;28;20016;-89
2023/12/26 01:56:22;;;;;;;2.10;1.60;;;;;;;-148.88;100.00;-17125.47;5057222;28;20090;-89
2023/12/26 01:58:49;;;;;;;1.92;1.40;;;;;;;-148.88;100.00;-17125.47;5075132;28;20028;-91
2023/12/26 02:01:16;;;;;;;1.77;1.40;;;;;;;-148.88;100.00;-17125.47;5077002;28;20402;-91
2023/12/26 02:03:42;;;;;;;2.03;1.40;;;;;;;-148.88;100.00;-17125.47;5075390;28;20482;-91
2023/12/26 02:06:08;;;;;;;1.80;1.20;;;;;;;-148.88;100.00;-17125.47;5075520;28;20024;-90
2023/12/26 02:08:36;;;;;;;1.63;0.90;;;;;;;-148.88;100.00;-17125.47;5075524;28;20025;-90
2023/12/26 02:11:02;;;;;;;1.55;1.00;;;;;;;-148.88;100.00;-17125.47;5074934;28;20036;-90
2023/12/26 02:13:29;;;;;;;1.38;1.00;;;;;;;-148.88;100.00;-17125.47;5075039;28;20020;-89
2023/12/26 02:15:57;;;;;;;1.25;0.77;;;;;;;-148.88;100.00;-17125.47;5075175;28;20104;-89
2023/12/26 02:18:24;;;;;;;0.73;0.52;;;;;;;-148.88;100.00;-17125.47;5076507;28;20398;-90
2023/12/26 02:20:49;;;;;;;1.27;0.40;;;;;;;-148.88;100.00;-17125.47;5075801;28;20028;-90
2023/12/26 02:23:15;;;;;;;0.40;0.30;;;;;;;-148.88;100.00;-17125.47;5074944;28;20024;-91
2023/12/26 02:25:40;;;;;;;0.40;0.30;;;;;;;-148.88;100.00;-17125.47;5074599;28;20056;-90
2023/12/26 02:28:07;;;;;;;1.23;0.30;;;;;;;-148.88;100.00;-17125.47;5057054;28;20028;-90
2023/12/26 02:30:34;;;;;;;0.88;0.50;;;;;;;-148.88;100.00;-17125.47;5074221;28;20066;-90
2023/12/26 02:33:00;;;;;;;0.25;0.20;;;;;;;-148.88;100.00;-17125.47;5074114;28;20024;-89
2023/12/26 02:35:27;;;;;;;1.42;0.40;;;;;;;-148.88;100.00;-17125.47;5073660;28;20412;-90
2023/12/26 02:37:53;;;;;;;1.05;0.32;;;;;;;-148.88;100.00;-17125.47;5074238;28;20024;-91
2023/12/26 02:40:18;;;;;;;0.90;0.20;;;;;;;-148.88;100.00;-17125.47;5074483;28;20077;-91
2023/12/26 02:42:44;;;;;;;0.52;0.30;;;;;;;-148.88;100.00;-17125.47;5056321;28;20028;-90
2023/12/26 02:45:10;;;;;;;0.80;0.30;;;;;;;-148.88;100.00;-17125.47;5074467;28;20028;-90
2023/12/26 02:47:35;;;;;;;0.50;0.43;;;;;;;-148.88;100.00;-17125.47;5073858;28;20111;-89
2023/12/26 02:50:00;;;;;;;1.15;0.50;;;;;;;-148.88;100.00;-17125.47;5055950;28;20067;-89
2023/12/26 02:52:26;;;;;;;1.15;0.40;;;;;;;-148.88;100.00;-17125.47;5074328;28;20131;-90
2023/12/26 02:54:51;;;;;;;0.50;0.40;;;;;;;-148.88;100.00;-17125.47;5055784;28;20039;-90
2023/12/26 02:57:17;;;;;;;0.70;0.40;;;;;;;-148.88;100.00;-17125.47;5055751;28;20038;-91
2023/12/26 02:59:42;;;;;;;0.73;0.50;;;;;;;-148.88;100.00;-17125.47;5073053;28;20028;-90
2023/12/26 03:02:08;;;;;;;2.33;0.68;;;;;;;-148.88;100.00;-17125.47;5073363;28;20099;-91
2023/12/26 03:04:33;;;;;;;0.63;0.50;;;;;;;-148.88;100.00;-17125.47;5073625;28;20020;-89
2023/12/26 03:06:58;;;;;;;0.32;0.20;;;;;;;-148.88;100.00;-17125.47;5073410;28;20073;-89
2023/12/26 03:09:24;;;;;;;0.55;0.43;;;;;;;-148.88;100.00;-17125.47;5073415;28;20028;-90
2023/12/26 03:11:49;;;;;;;0.68;0.45;;;;;;;-148.88;100.00;-17125.47;5073512;28;20116;-90
2023/12/26 03:14:15;;;;;;;1.00;0.60;;;;;;;-148.88;100.00;-17125.47;5073346;28;20497;-90
2023/12/26 03:16:40;;;;;;;1.17;0.50;;;;;;;-148.88;100.00;-17125.47;5073737;28;20044;-89
2023/12/26 03:19:06;;;;;;;1.05;0.55;;;;;;;-148.88;100.00;-17125.47;5073420;28;20459;-90
2023/12/26 03:21:31;;;;;;;0.63;0.30;;;;;;;-148.88;100.00;-17125.47;5055633;28;20025;-89
2023/12/26 03:23:57;;;;;;;0.50;0.50;;;;;;;-148.88;100.00;-17125.47;5055548;28;20024;-90
2023/12/26 03:26:22;;;;;;;0.77;0.50;;;;;;;-148.88;100.00;-17125.47;5073738;28;20052;-91
2023/12/26 03:28:48;;;;;;;1.27;0.50;;;;;;;-148.88;100.00;-17125.47;5073878;28;20024;-90
2023/12/26 03:31:13;;;;;;;1.17;0.60;;;;;;;-148.88;100.00;-17125.47;5073760;28;20020;-89
2023/12/26 03:33:38;;;;;;;0.68;0.50;;;;;;;-148.88;100.00;-17125.47;5073882;28;20028;-90
2023/12/26 03:36:05;;;;;;;0.65;0.50;;;;;;;-148.88;100.00;-17125.47;5073602;28;20112;-90
2023/12/26 03:38:30;;;;;;;0.77;0.52;;;;;;;-148.88;100.00;-17125.47;5074849;28;20111;-90
2023/12/26 03:40:57;;;;;;;1.15;0.40;;;;;;;-148.88;100.00;-17125.47;5073684;28;20020;-89
2023/12/26 03:43:22;;;;;;;1.25;0.70;;;;;;;-148.88;100.00;-17125.47;5073771;28;20048;-89
2023/12/26 03:45:49;;;;;;;1.27;0.70;;;;;;;-148.88;100.00;-17125.47;5073508;28;20450;-89
2023/12/26 03:48:15;;;;;;;1.02;0.63;;;;;;;-148.88;100.00;-17125.47;5073334;28;20066;-90
2023/12/26 03:50:40;;;;;;;0.65;0.40;;;;;;;-148.88;100.00;-17125.47;5073112;28;20016;-89
2023/12/26 03:53:06;;;;;;;1.20;0.70;;;;;;;-148.88;100.00;-17125.47;5055360;28;20031;-90
2023/12/26 03:55:32;;;;;;;0.90;0.60;;;;;;;-148.88;100.00;-17125.47;5073554;28;20013;-90
2023/12/26 03:57:58;;;;;;;0.90;0.40;;;;;;;-148.88;100.00;-17125.47;5073662;28;20040;-90
2023/12/26 04:00:23;;;;;;;0.68;0.50;;;;;;;-148.88;100.00;-17125.47;5055765;28;20126;-90
2023/12/26 04:02:49;;;;;;;1.25;0.70;;;;;;;-148.88;100.00;-17125.47;5073757;28;20032;-90
2023/12/26 04:05:14;;;;;;;0.85;0.60;;;;;;;-148.88;100.00;-17125.47;5074194;28;20025;-91
2023/12/26 04:07:40;;;;;;;0.80;0.40;;;;;;;-148.88;100.00;-17125.47;5073656;28;20039;-90
2023/12/26 04:10:06;;;;;;;0.90;0.50;;;;;;;-148.88;100.00;-17125.47;5073405;28;20020;-91
2023/12/26 04:12:32;;;;;;;1.52;1.00;;;;;;;-148.88;100.00;-17125.47;5077544;28;20046;-91
2023/12/26 04:14:58;;;;;;;0.90;0.60;;;;;;;-148.88;100.00;-17125.47;5058824;28;20052;-90
2023/12/26 04:17:23;;;;;;;0.60;0.43;;;;;;;-148.88;100.00;-17125.47;5077211;28;20031;-91
2023/12/26 04:19:49;;;;;;;2.55;0.60;;;;;;;-148.88;100.00;-17125.47;5077073;28;20020;-90
2023/12/26 04:22:15;;;;;;;0.63;0.30;;;;;;;-148.88;100.00;-17125.47;5058782;28;20035;-91
2023/12/26 04:24:40;;;;;;;0.20;0.20;;;;;;;-148.88;100.00;-17125.47;5077066;28;20017;-89
2023/12/26 04:27:06;;;;;;;0.85;0.40;;;;;;;-148.88;100.00;-17125.47;5076586;28;20047;-89
2023/12/26 04:29:32;;;;;;;0.77;0.20;;;;;;;-148.88;100.00;-17125.47;5076547;28;20066;-88
2023/12/26 04:31:57;;;;;;;1.25;0.40;;;;;;;-148.88;100.00;-17125.47;5076519;28;20054;-89
2023/12/26 04:34:23;;;;;;;1.95;0.50;;;;;;;-148.88;100.00;-17125.47;5076830;28;20027;-87
2023/12/26 04:36:48;;;;;;;0.47;0.30;;;;;;;-148.88;100.00;-17125.47;5076831;28;20033;-87
2023/12/26 04:39:14;;;;;;;0.93;0.30;;;;;;;-148.88;100.00;-17125.47;5076208;28;20070;-88
2023/12/26 04:41:40;;;;;;;2.88;0.45;;;;;;;-148.88;100.00;-17125.47;5076432;28;20024;-89
2023/12/26 04:44:05;;;;;;;2.10;0.50;;;;;;;-148.88;100.00;-17125.47;5076497;28;20079;-88
2023/12/26 04:46:31;;;;;;;3.40;1.00;;;;;;;-148.88;100.00;-17125.47;5076392;28;20029;-88
2023/12/26 04:48:56;;;;;;;2.38;0.43;;;;;;;-148.88;100.00;-17125.47;5076358;28;20099;-88
2023/12/26 04:51:22;;;;;;;2.20;0.68;;;;;;;-148.88;100.00;-17125.47;5058387;28;20025;-90
2023/12/26 04:53:49;;;;;;;2.58;0.95;;;;;;;-148.88;100.00;-17125.47;5076472;28;20470;-89
2023/12/26 04:56:19;;;;;;;3.15;1.10;;;;;;;-148.88;100.00;-17125.47;5076181;28;20475;-89
2023/12/26 04:58:47;;;;;;;1.40;0.50;;;;;;;-148.88;100.00;-17125.47;5058568;28;20036;-88
2023/12/26 05:01:13;;;;;;;3.38;0.90;;;;;;;-148.88;100.00;-17125.47;5076118;28;20031;-89
2023/12/26 05:03:39;;;;;;;3.88;0.75;;;;;;;-148.88;100.00;-17125.47;5075962;28;20021;-88
2023/12/26 05:06:05;;;;;;;1.52;0.60;;;;;;;-148.88;100.00;-17125.47;5058141;28;20020;-89
2023/12/26 05:08:31;;;;;;;2.53;1.00;;;;;;;-148.88;100.00;-17125.47;5076245;28;20032;-87
2023/12/26 05:10:56;;;;;;;4.78;0.63;;;;;;;-148.88;100.00;-17125.47;5076006;28;20099;-88
2023/12/26 05:13:22;;;;;;;5.97;1.05;;;;;;;-148.88;100.00;-17125.47;5075855;28;20028;-88
2023/12/26 05:15:47;;;;;;;3.97;0.40;;;;;;;-148.88;100.00;-17125.47;5057957;28;20028;-88
2023/12/26 05:18:13;;;;;;;3.42;0.68;;;;;;;-148.88;100.00;-17125.47;5075705;28;20087;-89
2023/12/26 05:20:39;;;;;;;3.58;1.25;;;;;;;-148.88;100.00;-17125.47;5058272;28;20017;-89
2023/12/26 05:23:04;;;;;;;3.28;1.10;;;;;;;-148.88;100.00;-17125.47;5057906;28;20063;-89
2023/12/26 05:25:30;;;;;;;3.97;0.90;;;;;;;-148.88;100.00;-17125.47;5058546;28;20020;-88
2023/12/26 05:27:55;;;;;;;2.40;0.50;;;;;;;-148.88;100.00;-17125.47;5075758;28;20035;-86
2023/12/26 05:30:22;;;;;;;3.33;0.68;;;;;;;-148.88;100.00;-17125.47;5057517;28;20027;-87
2023/12/26 05:32:47;;;;;;;5.05;1.25;;;;;;;-148.88;100.00;-17125.47;5075622;28;20024;-88
2023/12/26 05:35:13;;;;;;;5.57;1.17;;;;;;;-148.88;100.00;-17125.47;5075717;28;20024;-88
2023/12/26 05:37:38;;;;;;;4.55;1.38;;;;;;;-148.88;100.00;-17125.47;5075371;28;20029;-87
2023/12/26 05:40:04;;;;;;;2.35;0.73;;;;;;;-148.88;100.00;-17125.47;5075306;28;20029;-87
2023/12/26 05:42:30;;;;;;;2.42;1.00;;;;;;;-148.88;100.00;-17125.47;5057343;28;20032;-87
2023/12/26 05:44:55;;;;;;;3.55;1.08;;;;;;;-148.88;100.00;-17125.47;5075185;28;20025;-86
2023/12/26 05:47:21;;;;;;;1.70;0.60;;;;;;;-148.88;100.00;-17125.47;5075348;28;20096;-87
2023/12/26 05:49:46;;;;;;;3.42;1.00;;;;;;;-148.88;100.00;-17125.47;5057142;28;20032;-88
2023/12/26 05:52:12;;;;;;;2.80;1.20;;;;;;;-148.88;100.00;-17125.47;5075624;28;20047;-88
2023/12/26 05:54:37;;;;;;;3.67;0.88;;;;;;;-148.88;100.00;-17125.47;5057122;28;20016;-87
2023/12/26 05:57:03;;;;;;;1.05;0.47;;;;;;;-148.88;100.00;-17125.47;5075472;28;20044;-88
2023/12/26 05:59:28;;;;;;;4.43;1.00;;;;;;;-148.88;100.00;-17125.47;5075215;28;20032;-89
2023/12/26 06:01:54;;;;;;;1.23;0.65;;;;;;;-148.88;100.00;-17125.47;5075165;28;20024;-88
2023/12/26 06:04:19;;;;;;;3.10;0.70;;;;;;;-148.88;100.00;-17125.47;5074980;28;20024;-88
2023/12/26 06:06:45;;;;;;;4.88;0.63;;;;;;;-148.88;100.00;-17125.47;5074748;28;20032;-88
2023/12/26 06:09:10;;;;;;;4.70;1.10;;;;;;;-148.88;100.00;-17125.47;5074750;28;20024;-89
2023/12/26 06:11:35;;;;;;;4.00;1.30;;;;;;;-148.88;100.00;-17125.47;5074851;28;20107;-88
2023/12/26 06:14:01;;;;;;;1.70;0.80;;;;;;;-148.88;100.00;-17125.47;5074731;28;20086;-87
2023/12/26 06:16:26;;;;;;;4.43;0.75;;;;;;;-148.88;100.00;-17125.47;5074554;28;20090;-87
2023/12/26 06:18:52;;;;;;;3.05;0.70;;;;;;;-148.88;100.00;-17125.47;5057253;28;20111;-89
2023/12/26 06:21:17;;;;;;;3.90;1.30;;;;;;;-148.88;100.00;-17125.47;5056749;28;20056;-87
2023/12/26 06:23:42;;;;;;;4.40;1.40;;;;;;;-148.88;100.00;-17125.47;5074692;28;20056;-89
2023/12/26 06:26:08;;;;;;;1.45;0.63;;;;;;;-148.88;100.00;-17125.47;5074458;28;20446;-88
2023/12/26 06:28:42;;;;;;;3.10;0.90;;;;;;;-148.88;100.00;-17125.47;5056783;28;20028;-88
2023/12/26 06:31:15;;;;;;;2.50;0.55;;;;;;;-148.88;100.00;-17125.47;5074605;28;20021;-88
2023/12/26 06:33:41;;;;;;;1.30;0.65;;;;;;;-148.88;100.00;-17125.47;5073750;28;20502;-88
2023/12/26 06:36:07;;;;;;;2.10;0.60;;;;;;;-148.88;100.00;-17125.47;5074590;28;20021;-86
2023/12/26 06:38:33;;;;;;;4.88;1.02;;;;;;;-148.88;100.00;-17125.47;5074093;28;20024;-88
2023/12/26 06:40:58;;;;;;;3.20;1.10;;;;;;;-148.88;100.00;-17125.47;5056710;28;20024;-87
2023/12/26 06:43:24;;;;;;;4.07;1.45;;;;;;;-148.88;100.00;-17125.47;5056843;28;20115;-87
2023/12/26 06:45:49;;;;;;;1.83;1.00;;;;;;;-148.88;100.00;-17125.47;5074287;28;20052;-87
2023/12/26 06:48:17;;;;;;;5.70;1.20;;;;;;;-148.88;100.00;-17125.47;5056332;28;20024;-88
2023/12/26 06:50:43;;;;;;;4.55;1.30;;;;;;;-148.88;100.00;-17125.47;5056032;28;20025;-88
2023/12/26 06:53:09;;;;;;;5.22;1.40;;;;;;;-148.88;100.00;-17125.47;5074558;28;20020;-88
2023/12/26 06:55:34;;;;;;;3.15;1.38;;;;;;;-148.88;100.00;-17125.47;5074560;28;20025;-87
2023/12/26 06:58:00;;;;;;;3.17;0.85;;;;;;;-148.88;100.00;-17125.47;5056730;28;20094;-86
2023/12/26 07:00:25;;;;;;;4.68;0.95;;;;;;;-148.88;100.00;-17125.47;5074025;28;20065;-88
2023/12/26 07:02:51;;;;;;;7.32;1.63;;;;;;;-148.88;100.00;-17125.47;5074174;28;20055;-88
2023/12/26 07:05:19;;;;;;;6.93;1.42;;;;;;;-148.88;100.00;-17125.47;5074072;28;20099;-88
2023/12/26 07:07:45;;;;;;;3.67;1.00;;;;;;;-148.88;100.00;-17125.47;5056248;28;20035;-88
2023/12/26 07:10:10;;;;;;;1.30;0.60;;;;;;;-148.88;100.00;-17125.47;5074384;28;20379;-88
2023/12/26 07:12:37;;;;;;;4.90;0.95;;;;;;;-148.88;100.00;-17125.47;5057208;28;20029;-87
2023/12/26 07:15:04;;;;;;;3.42;0.80;;;;;;;-148.88;100.00;-17125.47;5073861;28;20079;-87
2023/12/26 07:17:29;;;;;;;4.25;1.10;;;;;;;-148.88;100.00;-17125.47;5074230;28;20032;-87
2023/12/26 07:19:55;;;;;;;5.03;1.63;;;;;;;-148.88;100.00;-17125.47;5073946;28;20020;-87
2023/12/26 07:22:20;;;;;;;7.78;1.83;;;;;;;-148.88;100.00;-17125.47;5074165;28;20116;-86
2023/12/26 07:24:45;;;;;;;3.90;1.23;;;;;;;-148.88;100.00;-17125.47;5073868;28;20103;-87
2023/12/26 07:27:11;;;;;;;7.65;2.17;;;;;;;-148.88;100.00;-17125.47;5073806;28;20166;-88
2023/12/26 07:29:37;;;;;;;4.00;0.73;;;;;;;-148.88;100.00;-17125.47;5073827;28;20391;-88
2023/12/26 07:32:10;;;;;;;3.03;0.82;;;;;;;-148.88;100.00;-17125.47;5073794;28;20475;-88
2023/12/26 07:34:35;;;;;;;4.40;0.75;;;;;;;-148.88;100.00;-17125.47;5073623;28;20040;-87
2023/12/26 07:37:01;;;;;;;4.20;0.75;;;;;;;-148.88;100.00;-17125.47;5073987;28;20060;-88
2023/12/26 07:39:26;;;;;;;4.85;1.35;;;;;;;-148.88;100.00;-17125.47;5056335;28;20040;-88
2023/12/26 07:41:51;;;;;;;5.18;1.13;;;;;;;-148.88;100.00;-17125.47;5055970;28;20021;-88
2023/12/26 07:44:17;;;;;;;4.30;1.33;;;;;;;-148.88;100.00;-17125.47;5055586;28;20120;-88
2023/12/26 07:46:42;;;;;;;2.22;0.60;;;;;;;-148.88;100.00;-17125.47;5054988;28;20036;-88
2023/12/26 07:49:08;;;;;;;3.75;1.00;;;;;;;-148.88;100.00;-17125.47;5055429;28;20020;-87
2023/12/26 07:51:33;;;;;;;2.78;0.65;;;;;;;-148.88;100.00;-17125.47;5055549;28;20029;-88
2023/12/26 07:54:32;;;;;;;5.65;1.40;;;;;;;-148.88;100.00;-17125.47;5055480;28;20021;-88
2023/12/26 07:56:50;;;;;;;3.35;0.88;;;;;;;-148.88;100.00;-17125.47;5080314;28;20037;-87
2023/12/26 07:59:16;;;;;;;6.07;1.52;;;;;;;-148.88;100.00;-17125.47;5056205;28;20035;-87
2023/12/26 08:01:44;;;;;;;7.22;1.48;;;;;;;-148.88;100.00;-17125.47;5074012;28;20020;-88
2023/12/26 08:04:10;;;;;;;3.05;0.70;;;;;;;-148.88;100.00;-17125.47;5073411;28;20086;-86
2023/12/26 08:06:38;;;;;;;4.43;0.80;;;;;;;-148.88;100.00;-17125.47;5073229;28;20031;-87
2023/12/26 08:09:04;;;;;;;5.85;0.85;;;;;;;-148.88;100.00;-17125.47;5055769;28;20495;-88
2023/12/26 08:11:29;;;;;;;7.50;1.27;;;;;;;-148.88;100.00;-17125.47;5073535;28;20040;-88
2023/12/26 08:13:55;;;;;;;5.53;1.00;;;;;;;-148.88;100.00;-17125.47;5074997;28;20475;-87
2023/12/26 08:16:20;;;;;;;4.57;1.20;;;;;;;-148.88;100.00;-17125.47;5055700;28;20020;-87
2023/12/26 08:18:46;;;;;;;6.53;1.90;;;;;;;-148.88;100.00;-17125.47;5055325;28;20089;-88
2023/12/26 08:21:11;;;;;;;2.97;0.85;;;;;;;-148.88;100.00;-17125.47;5073411;28;20024;-87
2023/12/26 08:23:37;;;;;;;2.58;0.65;;;;;;;-148.88;100.00;-17125.47;5073654;28;20025;-86
2023/12/26 08:26:06;;;;;;;3.25;0.73;;;;;;;-148.88;100.00;-17125.47;5073491;28;20017;-87
2023/12/26 08:28:35;;;;;;;2.33;0.70;;;;;;;-148.88;100.00;-17125.47;5055328;28;20043;-88
2023/12/26 08:31:03;;;;;;;2.70;0.98;;;;;;;-148.88;100.00;-17125.47;5073067;28;20020;-87
2023/12/26 08:33:31;;;;;;;6.22;1.05;;;;;;;-148.88;100.00;-17125.47;5072835;28;20027;-86
2023/12/26 08:35:57;;;;;;;4.88;1.10;;;;;;;-148.88;100.00;-17125.47;5055210;28;20364;-87
2023/12/26 08:38:23;;;;;;;4.32;0.60;;;;;;;-148.88;100.00;-17125.47;5073096;28;20510;-86
2023/12/26 08:40:51;;;;;;;2.00;0.60;;;;;;;-148.88;100.00;-17125.47;5073354;28;20024;-87
2023/12/26 08:43:17;;;;;;;3.95;0.80;;;;;;;-148.88;100.00;-17125.47;5072801;28;20024;-86
2023/12/26 08:45:45;;;;;;;7.32;1.00;;;;;;;-148.88;100.00;-17125.47;5073392;28;20535;-88
2023/12/26 08:48:10;;;;;;;5.20;0.80;;;;;;;-148.88;100.00;-17125.47;5055611;28;20109;-88
2023/12/26 08:50:36;;;;;;;8.35;1.50;;;;;;;-148.88;100.00;-17125.47;5055339;28;20055;-88
2023/12/26 08:53:02;;;;;;;2.38;0.70;;;;;;;-148.88;100.00;-17125.47;5055076;28;20601;-87
2023/12/26 08:55:27;;;;;;;3.40;1.20;;;;;;;-148.88;100.00;-17125.47;5073351;28;20012;-87
2023/12/26 08:58:02;;;;;;;6.82;1.20;;;;;;;-148.88;100.00;-17125.47;5075965;28;20024;-89
2023/12/26 09:00:27;;;;;;;7.68;1.58;;;;;;;-148.88;100.00;-17125.47;5076567;28;20028;-87
2023/12/26 09:02:53;;;;;;;8.20;1.10;;;;;;;-148.88;100.00;-17125.47;5058749;28;20028;-88
2023/12/26 09:05:40;;;;;;;6.00;1.15;;;;;;;-148.88;100.00;-17125.47;5076499;28;20016;-88
2023/12/26 09:08:06;;;;;;;2.53;0.90;;;;;;;-148.88;100.00;-17125.47;5076125;28;20029;-88
2023/12/26 09:10:34;;;;;;;7.22;1.63;;;;;;;-148.88;100.00;-17125.47;5076654;28;20028;-88
2023/12/26 09:13:00;;;;;;;2.20;0.70;;;;;;;-148.88;100.00;-17125.47;5076470;28;20029;-88
2023/12/26 09:15:25;;;;;;;10.90;2.03;;;;;;;-148.88;100.00;-17125.47;5076519;28;20020;-88
2023/12/26 09:18:03;;;;;;;6.38;0.82;;;;;;;-148.88;100.00;-17125.47;5076146;28;20029;-89
2023/12/26 09:20:29;;;;;;;9.88;1.25;;;;;;;-148.88;100.00;-17125.47;5076224;28;20090;-90
2023/12/26 09:22:54;;;;;;;6.32;1.80;;;;;;;-148.88;100.00;-17125.47;5075838;28;20491;-89
2023/12/26 09:25:20;;;;;;;9.02;2.00;;;;;;;-148.88;100.00;-17125.47;5058085;28;20032;-88
2023/12/26 09:27:48;;;;;;;5.13;0.85;;;;;;;-148.88;100.00;-17125.47;5059031;28;20021;-87
2023/12/26 09:30:14;;;;;;;8.82;1.70;;;;;;;-148.88;100.00;-17125.47;5058172;28;20115;-88
2023/12/26 09:32:40;;;;;;;3.92;0.77;;;;;;;-148.88;100.00;-17125.47;5076361;28;20031;-90
2023/12/26 09:35:29;;;;;;;6.18;0.98;;;;;;;-148.88;100.00;-17125.47;5058025;28;20037;-89
2023/12/26 09:37:54;;;;;;;8.23;1.00;;;;;;;-148.88;100.00;-17125.47;5076407;28;20036;-87
2023/12/26 09:40:20;;;;;;;6.38;0.82;;;;;;;-148.88;100.00;-17125.47;5057857;28;20024;-87
2023/12/26 09:42:49;;;;;;;3.80;1.05;;;;;;;-148.88;100.00;-17125.47;5075908;28;20390;-87
2023/12/26 09:45:15;;;;;;;7.20;1.70;;;;;;;-148.88;100.00;-17125.47;5075643;28;20016;-87
2023/12/26 09:47:48;;;;;;;10.90;1.10;;;;;;;-148.88;100.00;-17125.47;5075496;28;20483;-86
2023/12/26 09:50:13;;;;;;;3.72;1.10;;;;;;;-148.88;100.00;-17125.47;5075656;28;20021;-87
2023/12/26 09:52:47;;;;;;;6.93;1.80;;;;;;;-148.88;100.00;-17125.47;5056709;28;20094;-87
2023/12/26 09:55:21;;;;;;;5.40;0.60;;;;;;;-148.88;100.00;-17125.47;5057353;28;20056;-87
2023/12/26 09:57:48;;;;;;;10.07;1.58;;;;;;;-148.88;100.00;-17125.47;5075641;28;20505;-87
2023/12/26 10:00:13;;;;;;;7.38;0.98;;;;;;;-148.88;100.00;-17125.47;5057237;28;20047;-86
2023/12/26 10:02:42;;;;;;;2.72;0.80;;;;;;;-148.88;100.00;-17125.47;5075249;28;20028;-86
2023/12/26 10:05:08;;;;;;;9.05;1.70;;;;;;;-148.88;100.00;-17125.47;5075182;28;20052;-86
2023/12/26 10:07:37;;;;;;;3.88;0.85;;;;;;;-148.88;100.00;-17125.47;5056826;28;20043;-87
2023/12/26 10:10:05;;;;;;;9.50;2.65;;;;;;;-148.88;100.00;-17125.47;5056989;28;20024;-86
2023/12/26 10:12:36;;;;;;;9.82;1.25;;;;;;;-148.88;100.00;-17125.47;5075105;28;20506;-86
2023/12/26 10:15:06;;;;;;;7.18;1.00;;;;;;;-148.88;100.00;-17125.47;5057316;28;20028;-85
2023/12/26 10:17:38;;;;;;;7.60;1.02;;;;;;;-148.88;100.00;-17125.47;5056795;28;20429;-87
2023/12/26 10:20:04;;;;;;;8.57;1.00;;;;;;;-148.88;100.00;-17125.47;5056596;28;20495;-86
2023/12/26 10:22:32;;;;;;;10.77;2.22;;;;;;;-148.88;100.00;-17125.47;5075020;28;20021;-87
2023/12/26 10:25:00;;;;;;;7.30;1.35;;;;;;;-148.88;100.00;-17125.47;5074677;28;20390;-86
2023/12/26 10:27:31;;;;;;;4.55;0.95;;;;;;;-148.88;100.00;-17125.47;5056148;28;20036;-85
2023/12/26 10:29:57;;;;;;;5.32;1.58;;;;;;;-148.88;100.00;-17125.47;5056862;28;20085;-87
2023/12/26 10:32:32;;;;;;;5.82;0.82;;;;;;;-148.88;100.00;-17125.47;5056713;28;20021;-86
2023/12/26 10:35:13;;;;;;;6.47;1.10;;;;;;;-148.88;100.00;-17125.47;5057596;28;20040;-86
2023/12/26 10:37:42;;;;;;;6.38;1.25;;;;;;;-148.88;100.00;-17125.47;5056899;28;20497;-86
2023/12/26 10:40:09;;;;;;;5.32;1.15;;;;;;;-148.88;100.00;-17125.47;5074730;28;20066;-87
2023/12/26 10:42:41;;;;;;;4.93;0.80;;;;;;;-148.88;100.00;-17125.47;5056530;28;20031;-86
2023/12/26 10:45:08;;;;;;;4.90;0.98;;;;;;;-148.88;100.00;-17125.47;5074701;28;20028;-85
2023/12/26 10:47:34;;;;;;;8.80;2.05;;;;;;;-148.88;100.00;-17125.47;5056416;28;20020;-86
2023/12/26 10:50:01;;;;;;;9.25;2.15;;;;;;;-148.88;100.00;-17125.47;5073811;28;20032;-85
2023/12/26 10:56:06;;;;;;;8.48;1.02;;;;;;;-148.88;100.00;-17125.47;5074702;28;20086;-87
2023/12/26 10:58:35;;;;;;;4.72;1.05;;;;;;;-148.88;100.00;-17125.47;5056257;28;20032;-84
2023/12/26 13:51:40;;;;;;;9.68;1.38;;;;;;;-148.88;100.00;-17125.47;5055510;28;20454;-86
2023/12/26 13:54:05;;;;;;;4.10;1.10;;;;;;;-148.88;100.00;-17125.47;5053962;28;20032;-86